Freedom of the Seas — C6UZ7 — position and weather

sailwx.info

Track history (hours):
 
Tides and Currents Weather Stations Pressure Air Temp Water Temp Dewpoint Dewpoint Depression Visibility Wind Speed Wind Dir Waves Ship Positions

Freedom of the Seas

Last reported at 2019-Apr-24 11:02 UTC. Time now 2019-Apr-24 21:54 UTC.
Position N 14°15' W 061°13'.

Length 339 m; draft 9 m.

Type: Ship. MMSI: 309906000.

Date/timePositionNaut miles runAvg speedWind from/ knotsBaromVisibWave heightAir tempDewpointWater temp
2019-Apr-24 11:02N 14°15' W 061°13'212.6
2019-Apr-24 10:54N 14°16' W 061°14'1612.8
2019-Apr-24 09:37N 14°30' W 061°23'1112.9
2019-Apr-24 08:44N 14°41' W 061°27'160 5.2
2019-Apr-23 01:52N 16°59' W 062°51'4 6.4
2019-Apr-23 01:14N 17°03' W 062°52'18 1.3
2019-Apr-22 11:45N 17°21' W 062°56'1319.5
2019-Apr-22 11:06N 17°31' W 063°05'421.7
2019-Apr-22 10:55N 17°34' W 063°07'921.6
2019-Apr-22 10:30N 17°42' W 063°12'1121.1
2019-Apr-22 09:59N 17°46' W 063°22'1120.6
2019-Apr-22 09:28N 17°50' W 063°32'7020.3
2019-Apr-22 06:02N 18°10' W 064°43'019.2
2019-Apr-22 06:00N 18°10' W 064°43'8805.1
2019-Apr-22 06:00N 18°06' W 064°36'1735.5 050 / 191016.0 5.4 25.025.0
2019-Apr-22 05:31N 18°12' W 064°53'918.5
2019-Apr-22 05:01N 18°14' W 065°03'918.4
2019-Apr-22 04:31N 18°19' W 065°10'918.6
2019-Apr-22 04:01N 18°27' W 065°16'918.1
2019-Apr-22 03:31N 18°32' W 065°24'918.1
2019-Apr-22 03:01N 18°34' W 065°33'918.2
2019-Apr-22 02:30N 18°35' W 065°43'1317.9
2019-Apr-22 01:48N 18°38' W 065°56'1411.5
2019-Apr-22 00:34N 18°28' W 066°06'21 1.2
2019-Apr-21 06:59N 18°32' W 065°44'613.3
2019-Apr-21 06:30N 18°31' W 065°37'713.4
2019-Apr-21 06:00N 18°30' W 065°30'713.8
2019-Apr-21 05:30N 18°28' W 065°23'815.8
2019-Apr-21 05:00N 18°25' W 065°16'917.4
2019-Apr-21 04:30N 18°19' W 065°10'816.7
2019-Apr-21 04:00N 18°14' W 065°02'917.6
2019-Apr-21 03:30N 18°12' W 064°53'917.8
2019-Apr-21 03:00N 18°11' W 064°44'7817.7
2019-Apr-20 22:34N 18°02' W 063°22'218.0
2019-Apr-20 22:27N 18°02' W 063°20'817.4
2019-Apr-20 21:59N 18°01' W 063°11'612.0
2019-Apr-20 21:28N 18°00' W 063°05'2 0.5
2019-Apr-20 17:29N 18°01' W 063°03'0 0.0
2019-Apr-20 15:26N 18°01' W 063°03'0 0.0
2019-Apr-20 14:59N 18°01' W 063°03'1 0.2
2019-Apr-20 11:37N 18°00' W 063°03'810.7
2019-Apr-20 10:53N 17°57' W 063°11'611.7
2019-Apr-20 10:24N 17°55' W 063°16'612.5
2019-Apr-20 09:56N 17°52' W 063°22'912.9
2019-Apr-20 09:12N 17°48' W 063°30'8313.3
2019-Apr-20 03:00N 16°48' W 064°30'22612.6 080 / 291015.010.8 26.0
2019-Apr-19 09:00N 13°54' W 067°00'166 6.1 100 / 261014.010.8 26.0
2019-Apr-18 06:00N 12°36' W 069°30'12 0.5 070 / 241015.010.8 26.0
2019-Apr-17 06:00N 12°24' W 069°30'50 2.1 090 / 261015.010.8 25.0
2019-Apr-16 06:00N 13°00' W 068°54'21214.1 090 / 281015.010.8 26.0
2019-Apr-15 15:00N 16°24' W 067°54'12513.9 080 / 241017.010.8 25.7 26.0
2019-Apr-15 06:00N 18°24' W 067°18'   110 / 181015.010.8 26.0
Track history (hours):
 
Tides and Currents Weather Stations Pressure Air Temp Water Temp Dewpoint Dewpoint Depression Visibility Wind Speed Wind Dir Waves Ship Positions

Freedom of the Seas

Last reported at 2019-Apr-24 11:02 UTC. Time now 2019-Apr-24 21:54 UTC.
Position N 14°15' W 061°13'.

Length 339 m; draft 9 m.

Type: Ship. MMSI: 309906000.

Date/timePositionNaut miles runAvg speedWind from/ knotsBaromVisibWave heightAir tempDewpointWater temp
2019-Apr-24 11:02N 14°15' W 061°13'212.6
2019-Apr-24 10:54N 14°16' W 061°14'1612.8
2019-Apr-24 09:37N 14°30' W 061°23'1112.9
2019-Apr-24 08:44N 14°41' W 061°27'160 5.2
2019-Apr-23 01:52N 16°59' W 062°51'4 6.4
2019-Apr-23 01:14N 17°03' W 062°52'18 1.3
2019-Apr-22 11:45N 17°21' W 062°56'1319.5
2019-Apr-22 11:06N 17°31' W 063°05'421.7
2019-Apr-22 10:55N 17°34' W 063°07'921.6
2019-Apr-22 10:30N 17°42' W 063°12'1121.1
2019-Apr-22 09:59N 17°46' W 063°22'1120.6
2019-Apr-22 09:28N 17°50' W 063°32'7020.3
2019-Apr-22 06:02N 18°10' W 064°43'019.2
2019-Apr-22 06:00N 18°10' W 064°43'8805.1
2019-Apr-22 06:00N 18°06' W 064°36'1735.5 050 / 191016.0 5.4 25.025.0
2019-Apr-22 05:31N 18°12' W 064°53'918.5
2019-Apr-22 05:01N 18°14' W 065°03'918.4
2019-Apr-22 04:31N 18°19' W 065°10'918.6
2019-Apr-22 04:01N 18°27' W 065°16'918.1
2019-Apr-22 03:31N 18°32' W 065°24'918.1
2019-Apr-22 03:01N 18°34' W 065°33'918.2
2019-Apr-22 02:30N 18°35' W 065°43'1317.9
2019-Apr-22 01:48N 18°38' W 065°56'1411.5
2019-Apr-22 00:34N 18°28' W 066°06'21 1.2
2019-Apr-21 06:59N 18°32' W 065°44'613.3
2019-Apr-21 06:30N 18°31' W 065°37'713.4
2019-Apr-21 06:00N 18°30' W 065°30'713.8
2019-Apr-21 05:30N 18°28' W 065°23'815.8
2019-Apr-21 05:00N 18°25' W 065°16'917.4
2019-Apr-21 04:30N 18°19' W 065°10'816.7
2019-Apr-21 04:00N 18°14' W 065°02'917.6
2019-Apr-21 03:30N 18°12' W 064°53'917.8
2019-Apr-21 03:00N 18°11' W 064°44'7817.7
2019-Apr-20 22:34N 18°02' W 063°22'218.0
2019-Apr-20 22:27N 18°02' W 063°20'817.4
2019-Apr-20 21:59N 18°01' W 063°11'612.0
2019-Apr-20 21:28N 18°00' W 063°05'2 0.5
2019-Apr-20 17:29N 18°01' W 063°03'0 0.0
2019-Apr-20 15:26N 18°01' W 063°03'0 0.0
2019-Apr-20 14:59N 18°01' W 063°03'1 0.2
2019-Apr-20 11:37N 18°00' W 063°03'810.7
2019-Apr-20 10:53N 17°57' W 063°11'611.7
2019-Apr-20 10:24N 17°55' W 063°16'612.5
2019-Apr-20 09:56N 17°52' W 063°22'912.9
2019-Apr-20 09:12N 17°48' W 063°30'8313.3
2019-Apr-20 03:00N 16°48' W 064°30'22612.6 080 / 291015.010.8 26.0
2019-Apr-19 09:00N 13°54' W 067°00'166 6.1 100 / 261014.010.8 26.0
2019-Apr-18 06:00N 12°36' W 069°30'12 0.5 070 / 241015.010.8 26.0
2019-Apr-17 06:00N 12°24' W 069°30'50 2.1 090 / 261015.010.8 25.0
2019-Apr-16 06:00N 13°00' W 068°54'21214.1 090 / 281015.010.8 26.0
2019-Apr-15 15:00N 16°24' W 067°54'12513.9 080 / 241017.010.8 25.7 26.0
2019-Apr-15 06:00N 18°24' W 067°18'   110 / 181015.010.8 26.0

Dump ship's entire track history